Time;durP1;ratioP1;P1;durP2;ratioP2;P2;SDS_P1;SDS_P2;PMS_P1;PMS_P2;Temp;Humidity;BMP_temperature;BMP_pressure;BME280_temperature;BME280_humidity;BME280_pressure;Samples;Min_cycle;Max_cycle;Signal;HPM_P1;HPM_P2
2022/06/26 00:02:13;;;;;;;0.00;0.00;;;22.80;99.60;;;;;;5093912;28;20091;-75
2022/06/26 00:04:39;;;;;;;0.00;0.00;;;23.00;99.20;;;;;;5075198;28;20070;-75
2022/06/26 00:07:05;;;;;;;0.00;0.00;;;23.00;95.90;;;;;;5093431;28;20028;-74
2022/06/26 00:09:31;;;;;;;0.00;0.00;;;23.10;98.00;;;;;;5093428;28;20028;-75
2022/06/26 00:11:58;;;;;;;0.00;0.00;;;23.20;94.70;;;;;;5093193;28;20020;-75
2022/06/26 00:14:25;;;;;;;0.00;0.00;;;23.40;95.20;;;;;;5094934;28;20120;-76
2022/06/26 00:16:51;;;;;;;0.00;0.00;;;23.70;99.90;;;;;;5101379;28;20021;-76
2022/06/26 00:19:17;;;;;;;0.00;0.00;;;24.20;95.40;;;;;;5075679;28;20034;-76
2022/06/26 00:21:43;;;;;;;0.00;0.00;;;24.90;91.40;;;;;;5076730;28;20427;-76
2022/06/26 00:24:10;;;;;;;0.00;0.00;;;25.70;84.80;;;;;;5100184;28;20026;-76
2022/06/26 00:26:36;;;;;;;0.00;0.00;;;26.50;76.60;;;;;;5097228;28;20052;-76
2022/06/26 00:29:02;;;;;;;0.00;0.00;;;27.00;73.30;;;;;;5099262;28;20051;-76
2022/06/26 00:31:28;;;;;;;0.00;0.00;;;27.70;70.00;;;;;;5097617;28;20057;-76
2022/06/26 00:33:54;;;;;;;0.00;0.00;;;27.30;71.30;;;;;;5098734;28;20051;-77
2022/06/26 00:36:20;;;;;;;0.00;0.00;;;27.40;68.80;;;;;;5117387;28;20027;-76
2022/06/26 00:38:46;;;;;;;0.00;0.00;;;28.20;69.70;;;;;;5098442;28;20036;-76
2022/06/26 00:41:12;;;;;;;0.00;0.00;;;29.40;63.00;;;;;;5077191;28;20028;-76
2022/06/26 00:43:38;;;;;;;0.00;0.00;;;30.20;60.10;;;;;;5075487;28;20347;-76
2022/06/26 00:46:06;;;;;;;0.00;0.00;;;31.10;59.00;;;;;;5093995;28;20054;-76
2022/06/26 00:48:33;;;;;;;0.00;0.00;;;31.70;53.80;;;;;;5102916;28;20065;-76
2022/06/26 00:50:59;;;;;;;0.10;0.10;;;32.40;51.00;;;;;;5078775;28;20030;-75
2022/06/26 00:53:25;;;;;;;0.00;0.00;;;32.30;52.20;;;;;;5099589;28;20078;-76
2022/06/26 00:55:51;;;;;;;0.25;0.25;;;32.40;50.70;;;;;;5093704;28;20035;-76
2022/06/26 00:58:17;;;;;;;0.00;0.00;;;32.70;50.10;;;;;;5092440;28;20020;-76
2022/06/26 01:00:43;;;;;;;0.00;0.00;;;33.40;48.80;;;;;;5089913;28;20031;-77
2022/06/26 01:03:10;;;;;;;0.00;0.00;;;34.20;48.30;;;;;;5085841;28;20386;-75
2022/06/26 01:05:36;;;;;;;0.00;0.00;;;34.30;47.70;;;;;;5092114;28;20031;-75
2022/06/26 01:08:03;;;;;;;0.00;0.00;;;34.60;46.30;;;;;;5092127;28;20024;-75
2022/06/26 01:10:29;;;;;;;0.00;0.00;;;35.10;45.70;;;;;;5092322;28;20072;-75
2022/06/26 01:12:55;;;;;;;0.00;0.00;;;34.30;45.50;;;;;;5092420;28;20028;-76
2022/06/26 01:15:22;;;;;;;0.00;0.00;;;34.90;48.30;;;;;;5084762;28;20138;-75
2022/06/26 01:17:48;;;;;;;0.00;0.00;;;35.80;43.60;;;;;;5091074;28;20020;-75
2022/06/26 01:20:14;;;;;;;0.00;0.00;;;36.10;43.30;;;;;;5110903;28;20027;-75
2022/06/26 01:22:40;;;;;;;0.00;0.00;;;35.00;43.50;;;;;;5112509;28;20552;-76
2022/06/26 01:25:06;;;;;;;0.00;0.00;;;35.60;42.60;;;;;;5110274;28;20163;-76
2022/06/26 01:27:43;;;;;;;0.17;0.17;;;35.40;42.20;;;;;;5112594;28;20055;-75
2022/06/26 01:30:10;;;;;;;9.70;2.83;;;33.90;43.80;;;;;;5078824;28;20111;-75
2022/06/26 01:32:36;;;;;;;3.85;2.55;;;33.60;45.00;;;;;;5092319;28;20074;-75
2022/06/26 01:35:02;;;;;;;0.43;0.40;;;32.40;47.00;;;;;;5104044;28;20083;-75
2022/06/26 01:37:28;;;;;;;0.10;0.10;;;32.10;48.00;;;;;;5102481;28;20442;-74
2022/06/26 01:39:54;;;;;;;4.60;2.63;;;31.20;48.20;;;;;;5091871;28;20067;-75
2022/06/26 01:42:20;;;;;;;5.38;1.17;;;31.20;47.20;;;;;;5084187;28;20027;-74
2022/06/26 01:44:46;;;;;;;1.33;1.23;;;30.60;47.50;;;;;;5112243;28;20023;-74
2022/06/26 01:47:12;;;;;;;0.40;0.40;;;30.30;47.50;;;;;;5112010;28;20027;-74
2022/06/26 01:49:38;;;;;;;0.43;0.32;;;30.00;48.80;;;;;;5097209;28;20055;-74
2022/06/26 01:52:04;;;;;;;0.35;0.28;;;29.90;51.30;;;;;;5085497;28;20062;-74
2022/06/26 01:54:30;;;;;;;0.80;0.47;;;30.30;52.00;;;;;;5104388;28;20114;-74
2022/06/26 01:56:57;;;;;;;0.47;0.40;;;30.40;51.30;;;;;;5088007;28;20114;-74
2022/06/26 01:59:23;;;;;;;5.15;1.30;;;30.80;50.80;;;;;;5082481;28;20386;-75
2022/06/26 02:01:49;;;;;;;0.00;0.00;;;30.70;51.70;;;;;;5091522;28;20028;-75
2022/06/26 02:04:16;;;;;;;0.82;0.82;;;30.80;51.60;;;;;;5115952;28;20103;-75
2022/06/26 02:06:43;;;;;;;0.20;0.20;;;30.60;51.00;;;;;;5115998;28;20019;-75
2022/06/26 02:13:36;;;;;;;8.00;1.33;;;30.30;51.30;;;;;;5116176;28;20519;-75
2022/06/26 02:14:39;;;;;;;0.55;0.43;;;30.30;49.10;;;;;;5111737;28;20135;-75
2022/06/26 02:17:05;;;;;;;2.92;0.93;;;30.20;47.80;;;;;;5093600;28;20530;-76
2022/06/26 02:19:31;;;;;;;1.67;0.52;;;30.10;47.40;;;;;;5094101;28;20405;-75
2022/06/26 02:21:57;;;;;;;0.43;0.30;;;30.20;47.10;;;;;;5086160;28;20024;-75
2022/06/26 02:24:23;;;;;;;1.83;1.63;;;30.20;46.80;;;;;;5068757;28;20436;-77
2022/06/26 02:26:49;;;;;;;0.22;0.22;;;30.40;46.40;;;;;;5095228;28;20035;-76
2022/06/26 02:29:15;;;;;;;0.35;0.35;;;30.50;46.20;;;;;;5067047;28;20489;-77
2022/06/26 02:31:41;;;;;;;0.00;0.00;;;31.00;46.40;;;;;;5084346;28;20032;-77
2022/06/26 02:34:07;;;;;;;0.00;0.00;;;31.40;45.30;;;;;;5079143;28;20017;-77
2022/06/26 02:36:33;;;;;;;0.20;0.17;;;32.10;44.20;;;;;;5058716;28;20076;-77
2022/06/26 02:38:59;;;;;;;0.00;0.00;;;33.40;42.20;;;;;;5073749;28;20024;-76
2022/06/26 02:41:25;;;;;;;0.43;0.20;;;33.10;42.20;;;;;;5094953;28;20493;-76
2022/06/26 02:43:51;;;;;;;0.00;0.00;;;33.30;42.70;;;;;;5074724;28;20043;-76
2022/06/26 02:46:17;;;;;;;0.73;0.47;;;33.50;41.40;;;;;;5090067;28;20036;-76
2022/06/26 02:48:44;;;;;;;0.60;0.10;;;33.20;41.90;;;;;;5094592;28;20039;-75
2022/06/26 02:51:10;;;;;;;0.00;0.00;;;33.10;42.10;;;;;;5094730;28;20111;-75
2022/06/26 02:53:36;;;;;;;0.20;0.15;;;32.50;42.90;;;;;;5093979;28;20031;-75
2022/06/26 02:56:02;;;;;;;0.65;0.60;;;32.00;44.80;;;;;;5076227;28;20030;-75
2022/06/26 02:58:28;;;;;;;0.00;0.00;;;31.50;45.60;;;;;;5094234;28;20363;-75
2022/06/26 03:00:54;;;;;;;0.00;0.00;;;31.60;46.30;;;;;;5076056;28;20426;-75
2022/06/26 03:03:20;;;;;;;0.68;0.30;;;31.70;45.40;;;;;;5094782;28;20027;-75
2022/06/26 03:05:46;;;;;;;0.17;0.17;;;31.40;45.80;;;;;;5088407;28;20050;-75
2022/06/26 03:08:12;;;;;;;0.05;0.05;;;31.30;45.90;;;;;;5092665;28;20032;-76
2022/06/26 03:10:38;;;;;;;0.55;0.40;;;31.80;44.40;;;;;;5076268;28;20067;-75
2022/06/26 03:13:04;;;;;;;0.63;0.47;;;31.70;43.30;;;;;;5094535;28;20106;-75
2022/06/26 03:15:30;;;;;;;0.10;0.10;;;31.70;43.30;;;;;;5093363;28;20451;-76
2022/06/26 03:17:57;;;;;;;0.00;0.00;;;31.70;43.80;;;;;;5081129;28;20478;-76
2022/06/26 03:20:23;;;;;;;0.57;0.10;;;31.60;43.30;;;;;;5071068;28;20063;-77
2022/06/26 03:22:50;;;;;;;0.85;0.60;;;32.00;44.10;;;;;;5078834;28;20036;-76
2022/06/26 03:25:16;;;;;;;0.10;0.10;;;32.30;43.30;;;;;;5078449;28;20414;-76
2022/06/26 03:27:42;;;;;;;0.10;0.10;;;31.90;44.60;;;;;;5087133;28;20458;-77
2022/06/26 03:30:10;;;;;;;0.13;0.10;;;32.00;44.70;;;;;;5088017;28;20027;-76
2022/06/26 03:32:36;;;;;;;0.20;0.20;;;32.00;45.10;;;;;;5073931;28;20370;-77
2022/06/26 03:35:02;;;;;;;0.03;0.03;;;31.80;45.70;;;;;;5075826;28;20119;-78
2022/06/26 03:37:28;;;;;;;0.10;0.10;;;32.00;45.50;;;;;;5075645;28;20035;-77
2022/06/26 03:39:54;;;;;;;0.20;0.20;;;32.30;45.00;;;;;;5080560;28;20424;-77
2022/06/26 03:42:20;;;;;;;0.00;0.00;;;33.20;44.10;;;;;;5089955;28;20099;-78
2022/06/26 03:44:46;;;;;;;2.38;0.70;;;33.60;43.20;;;;;;5091041;28;20016;-79
2022/06/26 03:47:13;;;;;;;0.60;0.60;;;33.50;42.10;;;;;;5090423;28;20020;-78
2022/06/26 03:49:39;;;;;;;0.10;0.10;;;33.10;41.60;;;;;;5092758;28;20020;-77
2022/06/26 03:52:05;;;;;;;0.00;0.00;;;33.20;42.40;;;;;;5089699;28;20508;-76
2022/06/26 03:54:33;;;;;;;0.00;0.00;;;33.90;41.10;;;;;;5086880;28;20032;-76
2022/06/26 03:57:00;;;;;;;0.10;0.10;;;35.10;40.30;;;;;;5090725;28;20092;-76
2022/06/26 03:59:26;;;;;;;1.23;0.30;;;35.30;38.60;;;;;;5091103;28;20031;-76
2022/06/26 04:01:52;;;;;;;0.03;0.03;;;34.00;39.60;;;;;;5090510;28;20020;-76
2022/06/26 04:04:18;;;;;;;0.52;0.25;;;32.90;41.20;;;;;;5092485;28;20024;-77
2022/06/26 04:06:44;;;;;;;0.60;0.40;;;32.50;42.10;;;;;;5092701;28;20492;-77
2022/06/26 04:09:10;;;;;;;0.00;0.00;;;32.30;42.90;;;;;;5074430;28;20032;-77
2022/06/26 04:11:36;;;;;;;0.00;0.00;;;32.40;42.90;;;;;;5089201;28;20108;-75
2022/06/26 04:14:02;;;;;;;0.00;0.00;;;32.70;42.90;;;;;;5096919;28;20034;-78
2022/06/26 04:16:28;;;;;;;0.00;0.00;;;32.90;42.20;;;;;;5107988;28;20097;-77
2022/06/26 04:18:54;;;;;;;0.35;0.17;;;33.20;41.70;;;;;;5113859;28;20028;-76
2022/06/26 04:21:20;;;;;;;0.30;0.15;;;33.20;40.90;;;;;;5094991;28;20031;-77
2022/06/26 04:23:46;;;;;;;0.03;0.03;;;32.90;41.20;;;;;;5113486;28;20016;-77
2022/06/26 04:26:13;;;;;;;0.17;0.10;;;32.80;41.70;;;;;;5113327;28;20026;-77
2022/06/26 04:28:39;;;;;;;0.00;0.00;;;32.80;42.20;;;;;;5111284;28;20051;-77
2022/06/26 04:31:05;;;;;;;0.73;0.22;;;32.60;41.40;;;;;;5093400;28;20031;-78
2022/06/26 04:33:31;;;;;;;1.95;0.85;;;32.70;41.50;;;;;;5110016;27;20038;-80
2022/06/26 04:35:57;;;;;;;0.28;0.28;;;32.60;41.60;;;;;;5125714;27;20106;-79
2022/06/26 04:38:23;;;;;;;10.68;3.00;;;32.60;41.30;;;;;;5096351;28;20114;-79
2022/06/26 04:40:49;;;;;;;0.03;0.03;;;32.60;41.60;;;;;;5108756;27;20069;-78
2022/06/26 04:43:15;;;;;;;2.20;0.40;;;32.70;41.70;;;;;;5110723;28;20020;-77
2022/06/26 04:45:41;;;;;;;0.00;0.00;;;32.90;41.20;;;;;;5106175;27;20031;-78
2022/06/26 04:48:07;;;;;;;0.20;0.20;;;32.70;41.90;;;;;;5097162;28;20485;-77
2022/06/26 04:50:34;;;;;;;1.38;0.40;;;32.60;41.50;;;;;;5112623;27;20080;-78
2022/06/26 04:53:00;;;;;;;2.35;0.55;;;32.60;41.30;;;;;;5108365;27;20102;-78
2022/06/26 04:55:26;;;;;;;0.00;0.00;;;32.60;41.40;;;;;;5115184;27;20019;-79
2022/06/26 04:57:52;;;;;;;0.00;0.00;;;32.60;41.70;;;;;;5123695;27;20054;-78
2022/06/26 05:00:18;;;;;;;1.55;0.75;;;32.70;41.10;;;;;;5092704;28;20047;-77
2022/06/26 05:02:44;;;;;;;0.47;0.45;;;32.80;40.90;;;;;;5111356;27;20035;-78
2022/06/26 05:05:10;;;;;;;0.00;0.00;;;32.60;40.90;;;;;;5094128;28;20080;-78
2022/06/26 05:07:36;;;;;;;0.20;0.20;;;32.80;40.50;;;;;;5112414;28;20012;-76
2022/06/26 05:10:02;;;;;;;19.88;1.27;;;32.90;40.30;;;;;;5110634;28;20020;-77
2022/06/26 05:12:28;;;;;;;2.80;0.43;;;33.10;40.00;;;;;;5111703;27;20211;-78
2022/06/26 05:14:55;;;;;;;0.10;0.10;;;33.00;39.90;;;;;;5095655;27;20035;-78
2022/06/26 05:17:21;;;;;;;0.00;0.00;;;32.80;40.30;;;;;;5099628;28;20023;-77
2022/06/26 05:19:47;;;;;;;1.40;1.15;;;32.60;40.50;;;;;;5129306;27;20034;-76
2022/06/26 05:22:13;;;;;;;3.50;2.67;;;32.70;40.50;;;;;;5122992;27;21194;-76
2022/06/26 05:24:39;;;;;;;0.43;0.10;;;33.00;39.40;;;;;;5111418;28;20028;-77
2022/06/26 05:27:05;;;;;;;0.43;0.43;;;33.10;39.20;;;;;;5089741;28;20123;-78
2022/06/26 05:29:31;;;;;;;0.25;0.17;;;33.10;38.90;;;;;;5110224;28;20102;-76
2022/06/26 05:31:57;;;;;;;0.00;0.00;;;32.90;39.20;;;;;;5112169;28;20024;-78
2022/06/26 05:34:24;;;;;;;0.00;0.00;;;33.10;39.70;;;;;;5095651;28;20433;-77
2022/06/26 05:36:50;;;;;;;0.00;0.00;;;32.70;41.10;;;;;;5110891;28;20028;-76
2022/06/26 05:39:16;;;;;;;0.63;0.43;;;32.90;41.10;;;;;;5108919;28;20338;-76
2022/06/26 05:41:42;;;;;;;3.10;1.27;;;33.10;39.80;;;;;;5103964;28;20024;-77
2022/06/26 05:44:08;;;;;;;0.00;0.00;;;33.20;39.90;;;;;;5088816;28;20031;-77
2022/06/26 05:46:34;;;;;;;0.10;0.10;;;33.10;39.50;;;;;;5117177;28;20028;-75
2022/06/26 05:49:00;;;;;;;3.78;3.55;;;33.20;39.80;;;;;;5103527;28;20228;-76
2022/06/26 05:51:26;;;;;;;0.45;0.25;;;33.10;40.30;;;;;;5111124;28;20453;-76
2022/06/26 05:53:52;;;;;;;3.83;0.30;;;33.20;39.80;;;;;;5082960;28;20041;-76
2022/06/26 05:56:18;;;;;;;1.05;0.35;;;33.40;38.90;;;;;;5081293;28;20031;-75
2022/06/26 05:58:45;;;;;;;0.00;0.00;;;33.40;38.10;;;;;;5094927;28;20024;-75
2022/06/26 06:01:11;;;;;;;0.10;0.03;;;33.40;38.80;;;;;;5086955;28;20028;-75
2022/06/26 06:03:37;;;;;;;0.10;0.10;;;33.70;39.40;;;;;;5107627;28;20020;-76
2022/06/26 06:06:03;;;;;;;2.78;0.95;;;34.00;38.60;;;;;;5110908;28;20033;-76
2022/06/26 06:08:29;;;;;;;2.67;0.20;;;34.10;37.90;;;;;;5106180;28;20518;-76
2022/06/26 06:10:55;;;;;;;0.10;0.10;;;34.00;37.70;;;;;;5108972;28;20060;-77
2022/06/26 06:13:21;;;;;;;0.35;0.35;;;33.90;37.50;;;;;;5087746;28;20487;-76
2022/06/26 06:15:47;;;;;;;0.00;0.00;;;33.60;37.50;;;;;;5092360;28;20068;-78
2022/06/26 06:18:13;;;;;;;0.65;0.65;;;33.70;37.00;;;;;;5068521;28;20051;-75
2022/06/26 06:20:39;;;;;;;0.55;0.55;;;33.80;37.50;;;;;;5064437;28;20058;-76
2022/06/26 06:23:06;;;;;;;0.00;0.00;;;33.80;37.10;;;;;;5080767;28;20059;-77
2022/06/26 06:25:34;;;;;;;0.00;0.00;;;34.10;37.00;;;;;;5064511;28;20028;-77
2022/06/26 06:28:00;;;;;;;0.00;0.00;;;33.80;37.50;;;;;;5084208;28;20028;-77
2022/06/26 06:30:26;;;;;;;0.30;0.30;;;33.60;37.90;;;;;;5091234;28;20035;-77
2022/06/26 06:32:54;;;;;;;0.00;0.00;;;33.70;36.80;;;;;;5067825;28;20019;-77
2022/06/26 06:35:20;;;;;;;0.00;0.00;;;33.50;37.00;;;;;;5079818;28;20024;-77
2022/06/26 06:37:46;;;;;;;0.00;0.00;;;33.60;36.70;;;;;;5078229;28;20043;-77
2022/06/26 06:40:14;;;;;;;0.00;0.00;;;33.50;36.80;;;;;;5083058;28;20038;-77
2022/06/26 06:42:41;;;;;;;0.20;0.20;;;33.80;37.40;;;;;;5089210;28;20043;-76
2022/06/26 06:45:08;;;;;;;0.03;0.03;;;34.10;35.90;;;;;;5093077;28;20059;-76
2022/06/26 06:47:35;;;;;;;0.00;0.00;;;34.30;35.40;;;;;;5094676;28;20024;-77
2022/06/26 06:50:03;;;;;;;0.10;0.10;;;34.40;35.60;;;;;;5069920;28;20028;-76
2022/06/26 06:52:29;;;;;;;0.05;0.05;;;34.30;35.50;;;;;;5091518;28;20028;-76
2022/06/26 06:54:55;;;;;;;0.00;0.00;;;34.30;35.40;;;;;;5087557;28;20470;-77
2022/06/26 06:57:21;;;;;;;0.32;0.15;;;34.00;35.80;;;;;;5088274;28;20305;-76
2022/06/26 06:59:47;;;;;;;0.00;0.00;;;33.90;35.90;;;;;;5085763;28;20078;-77
2022/06/26 07:02:13;;;;;;;0.00;0.00;;;33.80;35.10;;;;;;5066566;28;20032;-76
2022/06/26 07:04:39;;;;;;;0.00;0.00;;;34.10;36.60;;;;;;5063363;28;20459;-76
2022/06/26 07:07:05;;;;;;;0.10;0.10;;;34.20;35.90;;;;;;5093880;28;20031;-77
2022/06/26 07:09:31;;;;;;;0.20;0.10;;;34.60;36.30;;;;;;5090351;28;20462;-75
2022/06/26 07:11:58;;;;;;;0.00;0.00;;;34.60;34.30;;;;;;5088292;28;20107;-75
2022/06/26 07:14:24;;;;;;;0.47;0.15;;;34.30;35.20;;;;;;5086958;28;20847;-75
2022/06/26 07:16:51;;;;;;;0.00;0.00;;;34.60;36.10;;;;;;5114224;28;20024;-75
2022/06/26 07:19:17;;;;;;;0.10;0.10;;;34.90;35.50;;;;;;5093709;28;20024;-76
2022/06/26 07:21:43;;;;;;;0.00;0.00;;;34.60;34.10;;;;;;5082922;28;20077;-76
2022/06/26 07:24:14;;;;;;;0.00;0.00;;;34.30;34.50;;;;;;5099225;27;20497;-76
2022/06/26 07:26:41;;;;;;;0.00;0.00;;;34.00;34.70;;;;;;5109912;27;20023;-76
2022/06/26 07:29:08;;;;;;;0.00;0.00;;;34.40;34.70;;;;;;5116094;27;20365;-75
2022/06/26 07:31:34;;;;;;;0.40;0.10;;;34.50;34.40;;;;;;5117479;27;20042;-76
2022/06/26 07:34:12;;;;;;;0.00;0.00;;;34.30;35.40;;;;;;5095165;28;20031;-75
2022/06/26 07:36:40;;;;;;;0.00;0.00;;;34.60;34.60;;;;;;5104790;27;20034;-75
2022/06/26 07:39:06;;;;;;;0.00;0.00;;;35.10;33.60;;;;;;5120217;27;20359;-75
2022/06/26 07:41:32;;;;;;;0.00;0.00;;;35.30;33.60;;;;;;5113342;27;20098;-75
2022/06/26 07:43:58;;;;;;;1.45;1.35;;;35.40;34.70;;;;;;5121318;27;20094;-75
2022/06/26 07:46:24;;;;;;;0.00;0.00;;;35.50;35.00;;;;;;5087486;28;20143;-75
2022/06/26 07:48:50;;;;;;;0.00;0.00;;;35.30;34.80;;;;;;5101446;28;20028;-77
2022/06/26 07:51:16;;;;;;;0.00;0.00;;;35.40;34.50;;;;;;5105628;27;20032;-76
2022/06/26 07:53:42;;;;;;;0.35;0.35;;;35.50;34.40;;;;;;5105865;27;20038;-76
2022/06/26 07:56:08;;;;;;;0.15;0.15;;;35.30;33.60;;;;;;5102698;28;20038;-75
2022/06/26 07:58:34;;;;;;;0.00;0.00;;;35.60;33.60;;;;;;5086139;28;20215;-75
2022/06/26 08:01:00;;;;;;;0.20;0.20;;;35.60;34.00;;;;;;5102264;27;20026;-75
2022/06/26 08:03:26;;;;;;;0.00;0.00;;;35.50;33.40;;;;;;5085887;28;20428;-74
2022/06/26 08:05:53;;;;;;;0.00;0.00;;;35.60;34.10;;;;;;5110739;27;20052;-75
2022/06/26 08:08:19;;;;;;;0.00;0.00;;;35.50;33.80;;;;;;5105197;27;20055;-75
2022/06/26 08:10:45;;;;;;;0.20;0.10;;;35.70;32.90;;;;;;5107303;27;20031;-74
2022/06/26 08:13:11;;;;;;;0.00;0.00;;;35.90;34.00;;;;;;5109652;28;20546;-75
2022/06/26 08:15:37;;;;;;;0.00;0.00;;;35.40;32.70;;;;;;5092492;28;20056;-76
2022/06/26 08:18:03;;;;;;;0.20;0.20;;;35.10;33.60;;;;;;5098119;28;20031;-75
2022/06/26 08:20:30;;;;;;;0.00;0.00;;;35.20;33.60;;;;;;5104544;28;20095;-74
2022/06/26 08:22:56;;;;;;;0.05;0.05;;;35.30;34.30;;;;;;5104506;28;20024;-75
2022/06/26 08:25:22;;;;;;;1.38;1.38;;;35.50;34.10;;;;;;5100353;28;20031;-74
2022/06/26 08:27:49;;;;;;;0.00;0.00;;;35.60;32.40;;;;;;5102141;28;20047;-74
2022/06/26 08:30:15;;;;;;;0.00;0.00;;;35.60;31.80;;;;;;5088126;28;20364;-75
2022/06/26 08:32:42;;;;;;;0.30;0.30;;;35.60;32.60;;;;;;5084246;28;20031;-75
2022/06/26 08:35:10;;;;;;;0.08;0.08;;;36.00;32.70;;;;;;5088925;28;20095;-75
2022/06/26 08:37:37;;;;;;;0.00;0.00;;;36.20;32.40;;;;;;5088199;28;20100;-75
2022/06/26 08:40:03;;;;;;;0.00;0.00;;;36.20;32.60;;;;;;5079787;28;20017;-75
2022/06/26 08:42:31;;;;;;;0.13;0.13;;;36.40;32.40;;;;;;5084998;28;20046;-75
2022/06/26 08:44:58;;;;;;;0.00;0.00;;;36.40;33.70;;;;;;5088245;28;20043;-75
2022/06/26 08:47:29;;;;;;;0.05;0.05;;;35.70;33.00;;;;;;5088581;28;20031;-75
2022/06/26 08:49:57;;;;;;;0.98;0.98;;;35.50;32.60;;;;;;5091221;28;20026;-75
2022/06/26 08:52:25;;;;;;;0.43;0.43;;;35.70;32.80;;;;;;5087312;28;20023;-75
2022/06/26 08:54:52;;;;;;;0.38;0.38;;;36.10;31.20;;;;;;5092882;28;20032;-78
2022/06/26 08:57:18;;;;;;;0.00;0.00;;;36.30;30.10;;;;;;5094221;28;20020;-74
2022/06/26 08:59:44;;;;;;;6.70;3.92;;;35.90;31.20;;;;;;5085138;28;20054;-75
2022/06/26 09:02:10;;;;;;;0.00;0.00;;;36.20;31.40;;;;;;5080746;28;20035;-75
2022/06/26 09:04:36;;;;;;;0.00;0.00;;;36.50;31.10;;;;;;5088120;28;20031;-75
2022/06/26 09:07:05;;;;;;;0.00;0.00;;;36.70;31.30;;;;;;5081772;28;20052;-74
2022/06/26 09:09:31;;;;;;;0.00;0.00;;;36.90;31.40;;;;;;5073771;28;20434;-74
2022/06/26 09:12:00;;;;;;;0.10;0.10;;;36.60;31.70;;;;;;5114695;27;20066;-74
2022/06/26 09:14:28;;;;;;;0.00;0.00;;;36.40;32.20;;;;;;5079313;28;20036;-74
2022/06/26 09:16:55;;;;;;;0.65;0.43;;;36.70;31.20;;;;;;5099195;28;20656;-73
2022/06/26 09:19:24;;;;;;;0.00;0.00;;;36.50;31.30;;;;;;5081481;28;20047;-75
2022/06/26 09:21:52;;;;;;;0.45;0.45;;;36.70;31.20;;;;;;5074315;28;20389;-74
2022/06/26 09:24:21;;;;;;;8.10;1.55;;;37.00;30.80;;;;;;5074058;28;20035;-76
2022/06/26 09:27:14;;;;;;;0.00;0.00;;;37.00;29.80;;;;;;5108438;28;20028;-75
2022/06/26 09:29:42;;;;;;;0.20;0.20;;;37.00;30.00;;;;;;5092606;28;20039;-75
2022/06/26 09:32:13;;;;;;;0.38;0.38;;;36.30;30.70;;;;;;5073944;28;20032;-75
2022/06/26 09:34:53;;;;;;;0.00;0.00;;;36.50;29.10;;;;;;5088209;28;20111;-74
2022/06/26 09:37:21;;;;;;;0.00;0.00;;;36.50;29.90;;;;;;5083997;28;20036;-74
2022/06/26 09:39:47;;;;;;;0.00;0.00;;;36.70;29.60;;;;;;5088128;28;20020;-74
2022/06/26 09:42:22;;;;;;;0.00;0.00;;;36.90;28.50;;;;;;5092840;28;20016;-75
2022/06/26 09:44:55;;;;;;;1.00;0.20;;;36.70;29.60;;;;;;5077931;28;20043;-74
2022/06/26 09:47:30;;;;;;;0.00;0.00;;;36.60;29.40;;;;;;5067114;28;20123;-74
2022/06/26 09:49:58;;;;;;;0.10;0.10;;;36.60;29.90;;;;;;5089856;28;20099;-74
2022/06/26 09:52:26;;;;;;;0.13;0.13;;;36.90;29.30;;;;;;5089849;28;20467;-75
2022/06/26 09:54:54;;;;;;;0.20;0.20;;;36.80;28.70;;;;;;5091425;28;20027;-75
2022/06/26 09:57:20;;;;;;;0.00;0.00;;;36.80;28.80;;;;;;5086484;28;20112;-74
2022/06/26 09:59:47;;;;;;;0.00;0.00;;;36.60;28.00;;;;;;5059200;28;20025;-75
2022/06/26 10:07:51;;;;;;;0.03;0.03;;;36.10;28.30;;;;;;5081952;28;20177;-72
2022/06/26 10:10:23;;;;;;;0.00;0.00;;;36.10;28.60;;;;;;5084245;28;20047;-72
2022/06/26 10:12:53;;;;;;;0.00;0.00;;;36.10;27.90;;;;;;5073165;28;20500;-74
2022/06/26 10:15:24;;;;;;;0.00;0.00;;;36.20;28.20;;;;;;5089873;28;20055;-74
2022/06/26 10:18:03;;;;;;;0.00;0.00;;;36.30;27.90;;;;;;5072041;28;20016;-74
2022/06/26 10:20:31;;;;;;;0.03;0.00;;;36.10;28.10;;;;;;5090623;28;20100;-74
2022/06/26 10:22:58;;;;;;;0.00;0.00;;;36.20;28.10;;;;;;5081681;28;20028;-74
2022/06/26 10:25:26;;;;;;;0.00;0.00;;;36.20;28.00;;;;;;5088734;28;20068;-75
2022/06/26 10:27:53;;;;;;;0.10;0.10;;;35.80;28.00;;;;;;5091822;28;20020;-75
2022/06/26 10:30:22;;;;;;;0.00;0.00;;;35.80;28.20;;;;;;5097857;28;20464;-74
2022/06/26 10:33:17;;;;;;;0.00;0.00;;;35.50;28.30;;;;;;5082442;28;20024;-80
2022/06/26 10:35:49;;;;;;;0.00;0.00;;;35.50;28.90;;;;;;5098126;28;20042;-75
2022/06/26 10:38:23;;;;;;;0.00;0.00;;;35.60;28.90;;;;;;5079019;28;20047;-75
2022/06/26 10:44:00;;;;;;;0.00;0.00;;;35.60;29.10;;;;;;5094338;28;20035;-75
2022/06/26 10:46:58;;;;;;;0.00;0.00;;;35.60;29.90;;;;;;5074056;28;20020;-75
2022/06/26 10:49:24;;;;;;;0.00;0.00;;;35.60;29.20;;;;;;5088353;28;20024;-73
2022/06/26 10:51:50;;;;;;;0.00;0.00;;;35.70;29.00;;;;;;5091187;28;20054;-74
2022/06/26 10:54:27;;;;;;;0.00;0.00;;;35.80;28.40;;;;;;5092017;28;20020;-73
2022/06/26 10:57:17;;;;;;;0.00;0.00;;;35.80;28.20;;;;;;5084592;28;20029;-73
2022/06/26 10:59:44;;;;;;;0.00;0.00;;;35.80;28.90;;;;;;5093049;28;20020;-75
2022/06/26 11:02:11;;;;;;;0.03;0.03;;;36.00;29.30;;;;;;5083545;28;20383;-74
2022/06/26 11:04:48;;;;;;;0.00;0.00;;;36.00;29.50;;;;;;5089103;28;20028;-76
2022/06/26 11:07:15;;;;;;;0.00;0.00;;;35.90;29.50;;;;;;5084452;28;20160;-76
2022/06/26 11:09:42;;;;;;;0.00;0.00;;;35.90;29.70;;;;;;5087137;28;20584;-76
2022/06/26 11:12:08;;;;;;;0.00;0.00;;;36.00;29.40;;;;;;5093087;28;20490;-73
2022/06/26 11:14:34;;;;;;;0.00;0.00;;;35.90;29.60;;;;;;5093421;28;20040;-75
2022/06/26 11:17:00;;;;;;;0.00;0.00;;;35.80;29.80;;;;;;5093385;28;20027;-74
2022/06/26 11:22:18;;;;;;;0.00;0.00;;;35.60;29.90;;;;;;5102875;28;20232;-75
2022/06/26 11:24:49;;;;;;;0.00;0.00;;;35.60;29.60;;;;;;5084846;28;20012;-75
2022/06/26 11:27:15;;;;;;;0.00;0.00;;;35.60;30.00;;;;;;5080356;28;20039;-75
2022/06/26 11:29:41;;;;;;;0.00;0.00;;;35.60;30.50;;;;;;5105397;28;20495;-75
2022/06/26 11:32:08;;;;;;;0.00;0.00;;;35.70;29.80;;;;;;5103093;28;20020;-75
2022/06/26 11:34:35;;;;;;;0.00;0.00;;;35.70;30.20;;;;;;5099673;28;20061;-74
2022/06/26 11:37:02;;;;;;;0.10;0.10;;;35.50;30.30;;;;;;5067505;28;20626;-74
2022/06/26 11:39:41;;;;;;;0.00;0.00;;;35.60;30.50;;;;;;5082641;28;20107;-75
2022/06/26 11:42:15;;;;;;;0.10;0.10;;;35.60;30.20;;;;;;5078069;28;20024;-75
2022/06/26 11:44:52;;;;;;;0.00;0.00;;;35.50;30.40;;;;;;5085358;28;20032;-75
2022/06/26 11:47:20;;;;;;;0.10;0.10;;;35.30;31.20;;;;;;5084185;28;20059;-73
2022/06/26 11:49:46;;;;;;;0.00;0.00;;;35.10;31.90;;;;;;5062812;28;20032;-75
2022/06/26 11:52:13;;;;;;;0.00;0.00;;;35.10;30.90;;;;;;5080173;28;20074;-74
2022/06/26 11:54:40;;;;;;;0.10;0.10;;;35.00;31.40;;;;;;5088841;28;20024;-75
2022/06/26 11:57:10;;;;;;;1.27;1.20;;;35.00;32.00;;;;;;5080928;28;20024;-75
2022/06/26 11:59:43;;;;;;;0.00;0.00;;;35.10;32.10;;;;;;5089883;28;20024;-75
2022/06/26 12:02:23;;;;;;;0.00;0.00;;;35.30;31.30;;;;;;5085127;28;20016;-75
2022/06/26 12:05:00;;;;;;;0.52;0.30;;;35.30;31.10;;;;;;5092705;28;20020;-76
2022/06/26 12:07:38;;;;;;;0.00;0.00;;;35.30;31.30;;;;;;5091588;28;20028;-74
2022/06/26 12:10:05;;;;;;;0.00;0.00;;;35.40;31.50;;;;;;5075130;28;20024;-74
2022/06/26 12:12:31;;;;;;;0.00;0.00;;;35.40;31.80;;;;;;5063794;28;20348;-75
2022/06/26 12:14:57;;;;;;;0.00;0.00;;;35.30;31.60;;;;;;5076266;28;20119;-77
2022/06/26 12:17:25;;;;;;;0.00;0.00;;;35.30;31.00;;;;;;5075664;28;20074;-76
2022/06/26 12:19:52;;;;;;;0.00;0.00;;;35.20;31.90;;;;;;5084105;28;20098;-76
2022/06/26 12:22:32;;;;;;;0.00;0.00;;;35.00;32.00;;;;;;5093320;28;20016;-76
2022/06/26 12:24:59;;;;;;;0.00;0.00;;;34.90;31.40;;;;;;5093360;28;20527;-76
2022/06/26 12:27:35;;;;;;;0.00;0.00;;;34.80;31.30;;;;;;5074805;28;20101;-76
2022/06/26 12:30:03;;;;;;;0.00;0.00;;;35.00;31.40;;;;;;5074673;28;20035;-75
2022/06/26 12:32:29;;;;;;;0.00;0.00;;;34.90;31.50;;;;;;5092965;28;20474;-75
2022/06/26 12:34:55;;;;;;;0.00;0.00;;;34.80;31.80;;;;;;5074857;28;20110;-75
2022/06/26 12:37:21;;;;;;;0.00;0.00;;;34.90;32.00;;;;;;5092043;28;20028;-75
2022/06/26 12:39:49;;;;;;;0.00;0.00;;;34.80;32.40;;;;;;5092924;28;20050;-76
2022/06/26 12:42:15;;;;;;;0.00;0.00;;;34.80;32.50;;;;;;5091320;28;20016;-75
2022/06/26 12:44:41;;;;;;;0.00;0.00;;;34.80;32.60;;;;;;5076749;28;20043;-75
2022/06/26 12:47:07;;;;;;;0.00;0.00;;;34.50;33.80;;;;;;5092597;28;20024;-75
2022/06/26 12:49:33;;;;;;;0.00;0.00;;;34.60;33.30;;;;;;5092701;28;20081;-75
2022/06/26 12:51:59;;;;;;;0.00;0.00;;;34.70;33.30;;;;;;5074338;28;20386;-75
2022/06/26 12:54:25;;;;;;;0.00;0.00;;;34.80;33.00;;;;;;5073913;28;20043;-75
2022/06/26 12:56:51;;;;;;;0.00;0.00;;;34.80;33.30;;;;;;5072923;28;20059;-75
2022/06/26 12:59:17;;;;;;;0.00;0.00;;;34.90;33.40;;;;;;5083124;28;20638;-75
2022/06/26 13:01:43;;;;;;;0.00;0.00;;;35.00;33.40;;;;;;5072626;28;20108;-74
2022/06/26 13:04:09;;;;;;;0.00;0.00;;;35.00;33.90;;;;;;5054792;28;20020;-74